Time;durP1;ratioP1;P1;durP2;ratioP2;P2;SDS_P1;SDS_P2;PMS_P1;PMS_P2;Temp;Humidity;BMP_temperature;BMP_pressure;BME280_temperature;BME280_humidity;BME280_pressure;Samples;Min_cycle;Max_cycle;Signal;HPM_P1;HPM_P2
2022/09/22 02:49:24;;;;;;;4.38;1.20;;;7.00;99.90;;;;;;4897375;28;87159;-71
2022/09/22 02:51:51;;;;;;;2.65;1.13;;;7.00;99.90;;;;;;4915068;28;86723;-70
2022/09/22 02:54:17;;;;;;;3.35;1.13;;;7.10;99.90;;;;;;4900572;28;86311;-70
2022/09/22 02:56:43;;;;;;;3.35;1.45;;;7.00;99.90;;;;;;4900563;28;87243;-70
2022/09/22 02:59:09;;;;;;;2.60;1.10;;;7.00;99.90;;;;;;4906167;28;86725;-70
2022/09/22 03:01:35;;;;;;;2.55;0.90;;;7.00;99.90;;;;;;4906265;28;87187;-71
2022/09/22 03:04:02;;;;;;;2.92;1.20;;;7.00;99.90;;;;;;4914518;28;86872;-71
2022/09/22 03:06:28;;;;;;;3.08;0.98;;;7.00;99.90;;;;;;4897984;28;87200;-70
2022/09/22 03:08:53;;;;;;;3.67;0.82;;;7.00;99.90;;;;;;4902973;28;86925;-70
2022/09/22 03:11:19;;;;;;;3.38;0.75;;;6.90;99.90;;;;;;4899359;28;87375;-70
2022/09/22 03:13:45;;;;;;;3.08;1.30;;;6.90;99.90;;;;;;4914672;28;86805;-69
2022/09/22 03:16:10;;;;;;;2.40;0.95;;;6.90;99.90;;;;;;4908581;28;87216;-70
2022/09/22 03:18:36;;;;;;;4.57;0.80;;;6.90;99.90;;;;;;4916381;28;86455;-70
2022/09/22 03:21:02;;;;;;;3.65;1.08;;;6.90;99.90;;;;;;4899550;28;87012;-68
2022/09/22 03:23:27;;;;;;;4.30;1.00;;;6.80;99.90;;;;;;4897055;28;86286;-70
2022/09/22 03:25:53;;;;;;;2.53;0.98;;;6.90;99.90;;;;;;4898564;28;87645;-71
2022/09/22 03:28:20;;;;;;;2.80;0.90;;;6.80;99.90;;;;;;4897317;28;88878;-69
2022/09/22 03:30:46;;;;;;;5.15;0.80;;;6.80;99.90;;;;;;4911093;28;88236;-72
2022/09/22 03:33:11;;;;;;;3.33;1.00;;;6.70;99.90;;;;;;4900877;28;87078;-70
2022/09/22 03:35:37;;;;;;;2.83;1.08;;;6.70;99.90;;;;;;4903890;28;87311;-72
2022/09/22 03:38:04;;;;;;;2.38;0.70;;;6.70;99.90;;;;;;4903269;28;87011;-71
2022/09/22 03:40:29;;;;;;;2.50;0.90;;;6.60;99.90;;;;;;4905207;28;86696;-71
2022/09/22 03:42:55;;;;;;;2.53;0.70;;;6.60;99.90;;;;;;4912884;28;87563;-70
2022/09/22 03:45:21;;;;;;;2.85;0.77;;;6.60;99.90;;;;;;4907218;28;87848;-71
2022/09/22 03:47:46;;;;;;;2.47;0.60;;;6.60;99.90;;;;;;4907118;28;86879;-71
2022/09/22 03:50:13;;;;;;;4.43;0.90;;;6.60;99.90;;;;;;4908181;28;87363;-70
2022/09/22 03:52:41;;;;;;;2.25;0.75;;;6.60;99.90;;;;;;4914160;28;86900;-72
2022/09/22 03:55:08;;;;;;;2.65;0.60;;;6.60;99.90;;;;;;4914783;28;87291;-69
2022/09/22 03:57:34;;;;;;;3.00;0.75;;;6.50;99.90;;;;;;4919533;28;86374;-70
2022/09/22 04:00:00;;;;;;;1.80;0.60;;;6.50;99.90;;;;;;4914480;28;86392;-71
2022/09/22 04:02:26;;;;;;;2.67;0.70;;;6.50;99.90;;;;;;4902709;28;86930;-71
2022/09/22 04:04:52;;;;;;;3.47;0.70;;;6.50;99.90;;;;;;4906687;28;87682;-71
2022/09/22 04:07:17;;;;;;;3.20;1.00;;;6.50;99.90;;;;;;4917996;28;87081;-70
2022/09/22 04:09:43;;;;;;;3.03;1.17;;;6.60;99.90;;;;;;4918679;28;86695;-71
2022/09/22 04:12:09;;;;;;;7.22;1.20;;;6.60;99.90;;;;;;4918693;28;87341;-71
2022/09/22 04:14:35;;;;;;;2.58;0.75;;;6.60;99.90;;;;;;4917338;28;88042;-70
2022/09/22 04:17:01;;;;;;;3.20;0.50;;;6.50;99.90;;;;;;4919199;28;87817;-71
2022/09/22 04:19:26;;;;;;;2.95;0.65;;;6.60;99.90;;;;;;4912661;28;86208;-71
2022/09/22 04:21:52;;;;;;;3.72;0.73;;;6.50;99.90;;;;;;4916986;28;87022;-71
2022/09/22 04:24:18;;;;;;;3.17;0.75;;;6.50;99.90;;;;;;4917719;28;87220;-70
2022/09/22 04:26:44;;;;;;;2.72;0.50;;;6.50;99.90;;;;;;4917738;28;86904;-71
2022/09/22 04:29:09;;;;;;;2.40;0.70;;;6.60;99.90;;;;;;4898366;28;86484;-71
2022/09/22 04:31:35;;;;;;;3.88;0.70;;;6.60;99.90;;;;;;4917774;28;86355;-70
2022/09/22 04:34:01;;;;;;;4.20;0.73;;;6.50;99.90;;;;;;4918070;28;88195;-70
2022/09/22 04:36:26;;;;;;;2.80;0.85;;;6.50;99.90;;;;;;4916599;28;87491;-70
2022/09/22 04:38:52;;;;;;;3.50;0.63;;;6.50;99.90;;;;;;4918314;28;87552;-70
2022/09/22 04:41:18;;;;;;;2.40;0.82;;;6.50;99.90;;;;;;4918501;28;86789;-70
2022/09/22 04:43:43;;;;;;;4.72;0.70;;;6.40;99.90;;;;;;4914726;28;87214;-70
2022/09/22 04:46:09;;;;;;;2.90;0.80;;;6.40;99.90;;;;;;4916815;28;87188;-71
2022/09/22 04:48:34;;;;;;;3.10;0.57;;;6.40;99.90;;;;;;4912842;28;86512;-69
2022/09/22 04:51:00;;;;;;;2.70;0.93;;;6.30;99.90;;;;;;4913908;28;86264;-70
2022/09/22 04:53:26;;;;;;;2.65;0.70;;;6.30;99.90;;;;;;4913302;28;87285;-70
2022/09/22 04:55:51;;;;;;;2.22;0.70;;;6.30;99.90;;;;;;4913894;28;87169;-72
2022/09/22 04:58:17;;;;;;;2.50;0.50;;;6.30;99.90;;;;;;4897754;28;87567;-70
2022/09/22 05:00:43;;;;;;;2.50;0.70;;;6.30;99.90;;;;;;4916742;28;86950;-69
2022/09/22 05:03:11;;;;;;;3.30;0.70;;;6.30;99.90;;;;;;4889518;28;91460;-70
2022/09/22 05:05:37;;;;;;;3.28;0.65;;;6.30;99.90;;;;;;4916177;28;87210;-69
2022/09/22 05:08:04;;;;;;;2.53;0.52;;;6.30;99.90;;;;;;4917211;28;86647;-69
2022/09/22 05:10:35;;;;;;;2.33;0.50;;;6.30;99.90;;;;;;4916786;28;86669;-70
2022/09/22 05:13:02;;;;;;;2.38;0.80;;;6.40;99.90;;;;;;4916876;28;87328;-70
2022/09/22 05:15:31;;;;;;;1.40;0.40;;;6.40;99.90;;;;;;4914448;28;87467;-70
2022/09/22 05:17:57;;;;;;;3.65;0.40;;;6.40;99.90;;;;;;4912568;28;86702;-70
2022/09/22 05:20:23;;;;;;;2.60;0.45;;;6.50;99.90;;;;;;4900250;28;85567;-69
2022/09/22 05:22:48;;;;;;;1.98;0.43;;;6.50;99.90;;;;;;4914225;28;86719;-70
2022/09/22 05:25:18;;;;;;;1.90;0.32;;;6.60;99.90;;;;;;4898968;28;88639;-70
2022/09/22 05:27:49;;;;;;;3.13;0.50;;;6.60;99.90;;;;;;4911845;28;87420;-70
2022/09/22 05:30:15;;;;;;;2.00;0.40;;;7.30;99.90;;;;;;4900874;28;86703;-70
2022/09/22 05:32:43;;;;;;;2.40;0.50;;;8.20;99.90;;;;;;4917492;28;86588;-70
2022/09/22 05:35:10;;;;;;;3.33;0.40;;;9.00;99.90;;;;;;4910325;28;86922;-69
2022/09/22 05:37:36;;;;;;;4.22;0.60;;;9.30;99.90;;;;;;4914703;28;86375;-71
2022/09/22 05:40:03;;;;;;;4.32;0.75;;;9.50;99.90;;;;;;4896869;28;86766;-69
2022/09/22 05:42:28;;;;;;;3.67;0.70;;;10.50;99.90;;;;;;4905393;28;87673;-70
2022/09/22 05:44:54;;;;;;;3.08;0.20;;;11.40;93.90;;;;;;4909183;28;86176;-69
2022/09/22 05:47:19;;;;;;;4.20;0.50;;;12.10;94.60;;;;;;4911290;28;86422;-71
2022/09/22 05:49:45;;;;;;;1.50;0.50;;;12.60;90.30;;;;;;4917699;28;86954;-71
2022/09/22 05:52:11;;;;;;;2.00;0.52;;;12.30;82.80;;;;;;4919887;28;88228;-70
2022/09/22 05:54:36;;;;;;;2.85;0.75;;;11.70;87.20;;;;;;4922415;28;87469;-71
2022/09/22 05:57:02;;;;;;;3.83;1.05;;;12.20;83.10;;;;;;4925318;28;86297;-71
2022/09/22 05:59:28;;;;;;;4.10;0.85;;;12.20;84.50;;;;;;4921692;28;86369;-70
2022/09/22 06:01:53;;;;;;;10.52;3.10;;;12.70;82.30;;;;;;4917602;28;87152;-70
2022/09/22 06:04:19;;;;;;;6.93;2.05;;;14.10;81.40;;;;;;4921939;28;87442;-70
2022/09/22 06:06:44;;;;;;;10.95;3.30;;;15.40;74.70;;;;;;4918291;28;86236;-70
2022/09/22 06:09:10;;;;;;;2.50;1.00;;;16.10;67.80;;;;;;4928690;28;86072;-69
2022/09/22 06:11:36;;;;;;;2.35;0.60;;;15.60;68.00;;;;;;4916421;28;86743;-71
2022/09/22 06:14:01;;;;;;;2.28;0.80;;;15.10;72.60;;;;;;4917119;28;87623;-71
2022/09/22 06:16:29;;;;;;;2.33;0.63;;;15.20;69.90;;;;;;4915850;28;87927;-71
2022/09/22 06:18:55;;;;;;;3.03;0.90;;;15.90;66.80;;;;;;4915324;28;86621;-71
2022/09/22 06:21:21;;;;;;;1.98;0.63;;;15.70;65.50;;;;;;4917019;28;86592;-72
2022/09/22 06:23:46;;;;;;;4.00;0.65;;;16.60;65.70;;;;;;4916117;28;87001;-71
2022/09/22 06:26:12;;;;;;;2.65;0.90;;;17.10;63.70;;;;;;4916866;28;86904;-70
2022/09/22 06:28:37;;;;;;;5.00;0.80;;;18.30;58.70;;;;;;4916112;28;86677;-71
2022/09/22 06:31:04;;;;;;;3.33;0.75;;;17.70;62.60;;;;;;4923407;28;87261;-70
2022/09/22 06:33:29;;;;;;;2.22;0.95;;;18.10;61.60;;;;;;4920920;28;86629;-70
2022/09/22 06:35:57;;;;;;;2.75;0.75;;;19.70;58.70;;;;;;4916618;28;86714;-70
2022/09/22 06:38:23;;;;;;;2.03;0.90;;;19.90;54.00;;;;;;4906236;28;86274;-71
2022/09/22 06:40:49;;;;;;;3.88;0.68;;;20.20;52.30;;;;;;4909374;28;88033;-71
2022/09/22 06:43:23;;;;;;;4.10;1.35;;;19.50;55.20;;;;;;4915536;28;87341;-70
2022/09/22 06:45:50;;;;;;;2.38;1.02;;;20.70;50.80;;;;;;4916256;28;86759;-70
2022/09/22 06:48:17;;;;;;;3.63;1.23;;;20.60;52.30;;;;;;4916384;28;86772;-70
2022/09/22 06:50:50;;;;;;;2.20;0.85;;;22.20;50.60;;;;;;4915439;28;86537;-70
2022/09/22 06:53:17;;;;;;;3.95;1.13;;;23.70;47.80;;;;;;4915535;28;87137;-71
2022/09/22 06:55:43;;;;;;;7.10;1.35;;;24.70;45.00;;;;;;4916889;28;86864;-71
2022/09/22 06:58:10;;;;;;;8.25;2.05;;;25.10;43.80;;;;;;4916980;28;86093;-71
2022/09/22 07:00:37;;;;;;;4.65;1.75;;;25.10;42.60;;;;;;4916532;28;87277;-71
2022/09/22 07:03:14;;;;;;;9.43;2.10;;;25.10;42.60;;;;;;4915786;28;87300;-71
2022/09/22 07:05:40;;;;;;;5.10;2.53;;;23.70;46.00;;;;;;4915615;28;88011;-70
2022/09/22 07:08:07;;;;;;;3.80;1.58;;;22.40;47.90;;;;;;4912936;28;86780;-71
2022/09/22 07:10:36;;;;;;;5.68;1.10;;;23.10;48.30;;;;;;4915434;28;86671;-71
2022/09/22 07:13:04;;;;;;;4.05;1.80;;;24.70;44.90;;;;;;4916161;28;86729;-72
2022/09/22 07:15:33;;;;;;;3.08;1.55;;;26.30;42.70;;;;;;4927113;28;86605;-71
2022/09/22 07:17:59;;;;;;;4.72;1.58;;;27.00;41.30;;;;;;4929088;28;86705;-71
2022/09/22 07:20:24;;;;;;;5.80;1.13;;;28.30;39.70;;;;;;4919429;28;86942;-71
2022/09/22 07:22:58;;;;;;;6.07;1.35;;;26.20;42.30;;;;;;4920600;28;87338;-71
2022/09/22 07:25:25;;;;;;;4.28;2.58;;;27.30;42.10;;;;;;4914702;28;86576;-72
2022/09/22 07:27:52;;;;;;;2.83;1.75;;;27.90;40.50;;;;;;4915393;28;86300;-72
2022/09/22 07:30:20;;;;;;;6.93;2.03;;;28.80;38.90;;;;;;4915647;28;89109;-71
2022/09/22 07:32:46;;;;;;;3.03;1.83;;;28.90;37.60;;;;;;4905578;28;88183;-72
2022/09/22 07:35:12;;;;;;;4.38;1.98;;;28.60;38.10;;;;;;4918980;28;86866;-71
2022/09/22 07:37:39;;;;;;;3.25;1.92;;;29.50;37.90;;;;;;4913142;28;87033;-72
2022/09/22 07:40:06;;;;;;;4.13;2.53;;;30.70;36.40;;;;;;4918582;28;87714;-71
2022/09/22 07:42:32;;;;;;;4.88;2.67;;;29.70;37.20;;;;;;4918661;28;89130;-71
2022/09/22 07:45:13;;;;;;;2.67;1.38;;;29.50;37.40;;;;;;4918644;28;86866;-73
2022/09/22 07:50:25;;;;;;;4.80;2.60;;;30.20;38.00;;;;;;4920526;28;86349;-72
2022/09/22 07:52:51;;;;;;;4.70;1.48;;;31.80;35.20;;;;;;4919123;28;87023;-71
2022/09/22 07:55:20;;;;;;;3.60;2.60;;;31.00;36.10;;;;;;4919297;28;88034;-72
2022/09/22 07:57:59;;;;;;;3.15;1.55;;;32.70;34.30;;;;;;4918935;28;86932;-72
2022/09/22 08:00:27;;;;;;;3.53;3.03;;;33.70;33.60;;;;;;4910023;28;87399;-72
2022/09/22 08:02:54;;;;;;;6.57;2.55;;;33.40;33.10;;;;;;4918834;28;86804;-71
2022/09/22 08:05:25;;;;;;;3.97;3.13;;;32.90;33.20;;;;;;4919029;28;86817;-71
2022/09/22 08:07:51;;;;;;;4.95;3.40;;;31.90;34.90;;;;;;4918969;28;86310;-71
2022/09/22 08:10:18;;;;;;;3.72;2.25;;;32.80;33.30;;;;;;4925989;28;86531;-71
2022/09/22 08:12:44;;;;;;;5.85;2.67;;;33.40;32.60;;;;;;4926669;28;86206;-72
2022/09/22 08:15:11;;;;;;;3.72;2.67;;;33.50;33.30;;;;;;4932349;28;86363;-73
2022/09/22 08:17:38;;;;;;;4.32;2.72;;;33.90;33.00;;;;;;4917939;28;87130;-72
2022/09/22 08:20:04;;;;;;;3.50;2.80;;;35.10;31.80;;;;;;4926460;28;87774;-72
2022/09/22 08:22:31;;;;;;;5.05;1.75;;;34.10;32.20;;;;;;4923626;28;88311;-72
2022/09/22 08:24:57;;;;;;;5.70;3.90;;;35.40;31.90;;;;;;4926431;28;86421;-71
2022/09/22 08:27:23;;;;;;;4.88;3.60;;;35.80;31.20;;;;;;4931205;28;86527;-71
2022/09/22 08:29:49;;;;;;;6.00;3.70;;;37.00;30.00;;;;;;4934879;28;86720;-73
2022/09/22 08:32:18;;;;;;;5.65;3.72;;;36.50;30.80;;;;;;4919849;28;88134;-72
2022/09/22 08:34:46;;;;;;;3.85;3.22;;;37.50;30.30;;;;;;4915587;28;87228;-71
2022/09/22 08:37:12;;;;;;;4.25;3.38;;;38.30;30.20;;;;;;4913946;28;85646;-73
2022/09/22 08:39:38;;;;;;;4.93;3.75;;;38.90;29.30;;;;;;4911742;28;88247;-72
2022/09/22 08:42:21;;;;;;;4.28;3.83;;;37.90;29.30;;;;;;4922481;28;87056;-72
2022/09/22 08:44:53;;;;;;;4.53;3.83;;;37.30;30.60;;;;;;4922722;28;87354;-72
2022/09/22 08:53:36;;;;;;;6.60;3.95;;;39.00;29.20;;;;;;4910363;28;86783;-73
2022/09/22 08:56:22;;;;;;;7.05;4.07;;;39.50;29.30;;;;;;4900721;28;86656;-72
2022/09/22 08:59:16;;;;;;;5.72;4.05;;;39.80;29.20;;;;;;4907788;28;86496;-73
2022/09/22 09:01:42;;;;;;;4.28;3.88;;;40.20;28.20;;;;;;4930887;28;86791;-73
2022/09/22 09:04:41;;;;;;;4.97;3.50;;;39.30;29.30;;;;;;4934664;28;87158;-72
2022/09/22 09:07:07;;;;;;;6.28;3.58;;;38.80;29.30;;;;;;4911398;28;86929;-72
2022/09/22 09:09:35;;;;;;;5.53;3.80;;;39.10;29.40;;;;;;4915082;28;86973;-72
2022/09/22 09:12:13;;;;;;;4.65;4.13;;;39.90;28.50;;;;;;4916431;28;87713;-72
2022/09/22 09:15:06;;;;;;;5.65;4.93;;;39.20;29.10;;;;;;4917643;28;88143;-73
2022/09/22 09:17:37;;;;;;;5.32;4.47;;;39.60;29.20;;;;;;4918006;28;86314;-73
2022/09/22 09:20:14;;;;;;;6.82;4.60;;;38.30;29.60;;;;;;4917028;28;86307;-73
2022/09/22 09:22:45;;;;;;;4.78;4.32;;;38.00;29.10;;;;;;4917877;28;87133;-72
2022/09/22 09:25:34;;;;;;;5.85;5.35;;;38.40;29.70;;;;;;4917340;28;86949;-72
2022/09/22 09:28:11;;;;;;;5.38;4.60;;;38.70;29.10;;;;;;4908247;28;87086;-72
2022/09/22 09:30:53;;;;;;;5.93;5.15;;;39.20;28.70;;;;;;4919353;28;85485;-73
2022/09/22 09:33:31;;;;;;;6.10;5.05;;;39.10;29.10;;;;;;4921120;28;87392;-73
2022/09/22 09:35:57;;;;;;;3.10;2.35;;;36.50;31.30;;;;;;4917161;28;87029;-72
2022/09/22 09:38:34;;;;;;;5.07;4.57;;;36.50;31.10;;;;;;4909207;28;87328;-72
2022/09/22 09:41:11;;;;;;;5.70;5.15;;;38.70;30.00;;;;;;4903620;28;87009;-72
2022/09/22 09:43:41;;;;;;;5.45;5.03;;;39.50;29.60;;;;;;4917590;28;87302;-73
2022/09/22 09:46:49;;;;;;;6.65;5.25;;;39.90;29.20;;;;;;4925970;28;88254;-72
2022/09/22 09:49:16;;;;;;;5.20;4.72;;;39.70;29.70;;;;;;4909976;28;86349;-73
2022/09/22 09:51:52;;;;;;;5.25;4.25;;;39.50;29.40;;;;;;4925711;28;87323;-72
2022/09/22 09:54:19;;;;;;;6.82;4.70;;;39.00;29.60;;;;;;4935709;28;86554;-72
2022/09/22 09:57:14;;;;;;;5.45;4.95;;;38.00;30.60;;;;;;4916060;28;89556;-72
2022/09/22 10:02:52;;;;;;;5.88;4.40;;;38.80;29.90;;;;;;4927579;28;86274;-72
2022/09/22 10:05:24;;;;;;;5.55;4.65;;;38.20;30.60;;;;;;4925322;28;88299;-71
2022/09/22 10:07:57;;;;;;;4.65;4.25;;;36.60;32.20;;;;;;4915258;28;87177;-71
2022/09/22 10:10:32;;;;;;;4.03;3.63;;;35.80;33.00;;;;;;4925814;28;87035;-72
2022/09/22 10:13:03;;;;;;;5.07;3.70;;;36.80;31.50;;;;;;4927431;28;86849;-72
2022/09/22 10:15:35;;;;;;;4.45;3.70;;;36.50;32.20;;;;;;4907185;28;86853;-72
2022/09/22 10:18:01;;;;;;;3.88;3.47;;;36.40;30.90;;;;;;4917350;28;87434;-71
2022/09/22 10:20:32;;;;;;;4.85;4.45;;;33.30;34.50;;;;;;4921039;28;86963;-71
2022/09/22 10:23:19;;;;;;;6.45;4.90;;;29.30;39.10;;;;;;4921611;28;85606;-71
2022/09/22 10:25:45;;;;;;;4.90;4.32;;;26.90;42.50;;;;;;4923966;28;87293;-71
2022/09/22 10:28:15;;;;;;;4.03;3.08;;;24.30;46.50;;;;;;4916942;28;87426;-70
2022/09/22 10:30:42;;;;;;;4.40;1.90;;;23.40;49.60;;;;;;4924591;28;87954;-70
2022/09/22 10:33:16;;;;;;;3.08;2.50;;;22.20;52.70;;;;;;4911800;28;86632;-70
2022/09/22 10:35:44;;;;;;;4.82;2.38;;;21.50;52.90;;;;;;4920512;28;87857;-70
2022/09/22 10:38:13;;;;;;;4.10;2.30;;;20.40;55.90;;;;;;4921681;28;87457;-69
2022/09/22 10:40:43;;;;;;;3.60;2.17;;;20.00;56.70;;;;;;4915717;28;86946;-71
2022/09/22 10:43:30;;;;;;;3.58;1.70;;;19.70;57.00;;;;;;4916970;28;87170;-71
2022/09/22 10:46:31;;;;;;;3.95;1.75;;;19.60;58.30;;;;;;4908691;28;92315;-70
2022/09/22 10:49:21;;;;;;;3.35;2.08;;;19.10;60.40;;;;;;4898307;28;91985;-70
2022/09/22 10:52:00;;;;;;;2.30;1.13;;;19.20;60.90;;;;;;4908607;28;92142;-70
2022/09/22 10:55:00;;;;;;;2.42;0.90;;;19.00;62.20;;;;;;4904616;28;91574;-69
2022/09/22 10:57:36;;;;;;;2.33;1.35;;;18.40;59.60;;;;;;4896502;28;94104;-70
2022/09/22 11:00:22;;;;;;;3.35;1.85;;;18.50;59.90;;;;;;4904236;28;92850;-70
2022/09/22 11:03:10;;;;;;;3.28;1.50;;;18.50;61.90;;;;;;4890324;28;91683;-69
2022/09/22 11:14:39;;;;;;;3.42;1.65;;;18.50;60.10;;;;;;4916026;28;92100;-69
2022/09/22 11:17:15;;;;;;;4.68;1.88;;;18.60;60.40;;;;;;4913506;28;91077;-71
2022/09/22 11:19:54;;;;;;;2.30;1.40;;;18.40;60.00;;;;;;4916307;28;92583;-70
2022/09/22 11:22:23;;;;;;;3.55;1.27;;;18.00;61.60;;;;;;4915811;28;92248;-69
2022/09/22 11:25:30;;;;;;;3.38;1.58;;;18.20;62.40;;;;;;4903658;28;92890;-70
2022/09/22 11:28:25;;;;;;;2.95;1.60;;;18.40;61.10;;;;;;4845767;28;91568;-71
2022/09/22 11:30:53;;;;;;;2.67;1.80;;;18.40;60.40;;;;;;4855354;28;92104;-70
2022/09/22 11:33:48;;;;;;;4.63;1.33;;;18.10;65.70;;;;;;4897937;28;92190;-70
2022/09/22 11:36:26;;;;;;;3.75;1.77;;;18.30;62.10;;;;;;4925461;28;91953;-70
2022/09/22 11:39:11;;;;;;;7.78;1.38;;;18.30;61.80;;;;;;4912921;28;91454;-71
2022/09/22 11:41:41;;;;;;;3.08;1.70;;;18.10;62.60;;;;;;4914631;28;91595;-70
2022/09/22 11:44:28;;;;;;;5.38;1.27;;;18.40;63.80;;;;;;4915141;28;91968;-70
2022/09/22 11:47:22;;;;;;;6.35;1.67;;;18.10;63.50;;;;;;4912486;28;92104;-71
2022/09/22 11:50:20;;;;;;;3.65;1.60;;;18.00;63.00;;;;;;4911456;28;92247;-69
2022/09/22 11:53:36;;;;;;;3.85;1.23;;;17.60;64.90;;;;;;4896574;28;93517;-70
2022/09/22 11:56:17;;;;;;;5.47;1.95;;;17.80;64.90;;;;;;4863696;28;91751;-69
2022/09/22 11:58:44;;;;;;;7.10;2.05;;;18.00;65.00;;;;;;4897958;28;91379;-70
2022/09/22 12:01:16;;;;;;;3.40;1.73;;;17.80;66.90;;;;;;4899579;28;92008;-69
2022/09/22 12:03:49;;;;;;;3.95;1.88;;;17.80;65.00;;;;;;4916523;28;92847;-70
2022/09/22 12:06:20;;;;;;;5.22;1.73;;;17.90;65.60;;;;;;4915635;28;91970;-69
2022/09/22 12:09:11;;;;;;;3.53;1.88;;;18.00;66.10;;;;;;4896357;28;92285;-72
2022/09/22 12:11:38;;;;;;;4.00;2.05;;;17.80;65.70;;;;;;4883472;28;91305;-70
2022/09/22 12:14:05;;;;;;;4.50;1.83;;;17.60;64.80;;;;;;4872442;28;93182;-71
2022/09/22 12:16:40;;;;;;;4.65;2.17;;;17.70;64.30;;;;;;4874647;28;92104;-70
2022/09/22 12:19:30;;;;;;;6.35;1.95;;;17.60;66.30;;;;;;4879227;28;92978;-70
2022/09/22 12:22:24;;;;;;;3.78;2.20;;;17.50;67.30;;;;;;4878998;28;92640;-71
2022/09/22 12:24:50;;;;;;;5.57;2.15;;;17.80;65.10;;;;;;4879449;28;92031;-71
2022/09/22 12:27:21;;;;;;;4.35;2.53;;;17.70;66.50;;;;;;4878044;28;91924;-72
2022/09/22 12:30:03;;;;;;;4.47;2.08;;;17.60;66.10;;;;;;4880240;28;91957;-71
2022/09/22 12:32:38;;;;;;;2.95;1.20;;;17.60;66.20;;;;;;4874907;28;92097;-72
2022/09/22 12:35:05;;;;;;;4.05;1.70;;;17.60;66.50;;;;;;4878800;28;92495;-72
2022/09/22 12:37:35;;;;;;;3.80;1.45;;;17.90;65.80;;;;;;4878427;28;93592;-71
2022/09/22 12:40:19;;;;;;;4.03;1.75;;;18.20;65.40;;;;;;4879791;28;92428;-71
2022/09/22 12:42:50;;;;;;;3.10;1.20;;;18.40;64.40;;;;;;4880187;28;92315;-71
2022/09/22 12:45:31;;;;;;;4.90;1.95;;;18.30;65.10;;;;;;4878403;28;93856;-72
2022/09/22 12:48:00;;;;;;;5.20;1.35;;;18.10;66.60;;;;;;4860584;28;92965;-72
2022/09/22 12:50:35;;;;;;;4.90;1.77;;;18.10;63.10;;;;;;4874177;28;92252;-71
2022/09/22 12:53:08;;;;;;;7.60;2.17;;;18.10;64.50;;;;;;4894395;28;92222;-72
2022/09/22 12:55:37;;;;;;;5.22;1.77;;;18.20;66.00;;;;;;4878243;28;91952;-72
2022/09/22 12:58:19;;;;;;;7.13;1.63;;;18.10;63.80;;;;;;4878759;28;91967;-72
2022/09/22 13:00:46;;;;;;;4.60;1.73;;;17.90;64.10;;;;;;4879414;28;92199;-72
2022/09/22 13:03:35;;;;;;;4.90;1.90;;;17.80;66.80;;;;;;4879216;28;91060;-72
2022/09/22 13:06:22;;;;;;;7.47;1.17;;;17.60;65.90;;;;;;4839434;28;92348;-72
2022/09/22 13:08:54;;;;;;;3.60;0.90;;;17.60;66.10;;;;;;4878544;28;93593;-71
2022/09/22 13:11:58;;;;;;;4.63;1.67;;;17.80;65.40;;;;;;4879545;28;93452;-72
2022/09/22 13:15:01;;;;;;;5.95;1.80;;;17.80;66.30;;;;;;4877637;28;92129;-71
2022/09/22 13:17:42;;;;;;;2.97;0.80;;;17.80;66.30;;;;;;4872992;28;92590;-71
2022/09/22 13:20:30;;;;;;;5.55;1.23;;;17.90;65.30;;;;;;4878085;28;92536;-71
2022/09/22 13:23:12;;;;;;;2.67;1.05;;;17.80;64.80;;;;;;4874305;28;92797;-72
2022/09/22 13:25:41;;;;;;;3.08;1.25;;;17.70;66.00;;;;;;4877493;28;92057;-71
2022/09/22 13:28:06;;;;;;;3.72;1.17;;;17.60;65.90;;;;;;4878577;28;91905;-71
2022/09/22 13:30:33;;;;;;;5.18;1.33;;;17.60;64.50;;;;;;4879063;28;92831;-71
2022/09/22 13:32:59;;;;;;;3.63;2.00;;;17.70;65.60;;;;;;4878310;28;92134;-72
2022/09/22 13:35:37;;;;;;;5.45;1.70;;;17.70;65.70;;;;;;4878831;28;92921;-72
2022/09/22 13:38:04;;;;;;;4.47;1.70;;;17.80;65.50;;;;;;4876790;28;92985;-71
2022/09/22 13:40:33;;;;;;;5.25;1.40;;;17.80;67.30;;;;;;4878052;28;92141;-71
2022/09/22 13:43:05;;;;;;;3.60;1.40;;;17.80;65.90;;;;;;4878406;28;91842;-71
2022/09/22 13:45:31;;;;;;;3.50;1.52;;;17.70;66.40;;;;;;4878036;28;92006;-71
2022/09/22 13:48:05;;;;;;;6.13;1.35;;;17.80;66.20;;;;;;4877151;28;93930;-73
2022/09/22 13:50:31;;;;;;;3.03;1.63;;;17.80;66.60;;;;;;4886627;28;92648;-71
2022/09/22 13:52:59;;;;;;;5.18;1.65;;;18.00;64.60;;;;;;4890939;28;92084;-70
2022/09/22 13:55:32;;;;;;;4.25;1.38;;;18.00;66.00;;;;;;4890998;28;92372;-71
2022/09/22 13:58:00;;;;;;;3.35;1.67;;;18.00;66.10;;;;;;4882729;28;92345;-71
2022/09/22 14:00:32;;;;;;;2.78;1.70;;;18.00;65.80;;;;;;4890422;28;92447;-71
2022/09/22 14:03:01;;;;;;;5.65;1.50;;;18.00;65.30;;;;;;4885653;28;93631;-71
2022/09/22 14:05:33;;;;;;;2.80;1.80;;;18.10;65.30;;;;;;4889242;28;92237;-71
2022/09/22 14:08:02;;;;;;;3.78;0.90;;;18.10;64.00;;;;;;4893051;28;93027;-71
2022/09/22 14:10:28;;;;;;;5.90;1.75;;;17.90;65.90;;;;;;4878298;28;92645;-71
2022/09/22 14:12:54;;;;;;;4.00;1.23;;;17.80;66.70;;;;;;4873484;28;91811;-71
2022/09/22 14:15:42;;;;;;;5.13;1.77;;;17.70;66.40;;;;;;4876556;28;92191;-71
2022/09/22 14:18:28;;;;;;;3.92;1.77;;;17.80;67.00;;;;;;4886066;28;93719;-71
2022/09/22 14:20:57;;;;;;;3.42;1.13;;;17.90;66.10;;;;;;4875854;28;91834;-71
2022/09/22 14:23:30;;;;;;;3.88;1.58;;;17.90;64.90;;;;;;4877541;28;92546;-71
2022/09/22 14:25:59;;;;;;;4.70;1.63;;;17.90;66.00;;;;;;4876302;28;91380;-71
2022/09/22 14:28:31;;;;;;;6.30;1.60;;;18.10;65.10;;;;;;4887180;28;93941;-71
2022/09/22 14:30:57;;;;;;;4.18;1.23;;;18.00;65.90;;;;;;4881658;28;92946;-71
2022/09/22 14:33:30;;;;;;;5.63;1.23;;;18.10;64.80;;;;;;4877515;28;92022;-71
2022/09/22 14:36:04;;;;;;;2.83;1.30;;;18.10;65.20;;;;;;4877190;28;92234;-71
2022/09/22 14:38:36;;;;;;;3.60;1.60;;;18.10;65.20;;;;;;4876611;28;92009;-71
2022/09/22 14:41:03;;;;;;;4.38;1.33;;;18.20;63.30;;;;;;4859625;28;93482;-71
2022/09/22 14:43:40;;;;;;;4.75;1.50;;;18.10;63.50;;;;;;4877858;28;91999;-71
2022/09/22 14:46:23;;;;;;;3.22;1.23;;;17.80;64.80;;;;;;4877751;28;91922;-71
2022/09/22 14:48:49;;;;;;;3.05;1.30;;;17.80;65.30;;;;;;4870550;28;92823;-71
2022/09/22 14:51:19;;;;;;;4.72;1.13;;;17.80;64.40;;;;;;4877798;28;92351;-71
2022/09/22 14:53:47;;;;;;;;;;;17.90;65.30;;;;;;4875926;28;93635;-71
2022/09/22 14:56:31;;;;;;;2.08;1.00;;;17.90;65.00;;;;;;4879371;28;92770;-71
2022/09/22 15:02:30;;;;;;;3.97;0.95;;;18.10;63.90;;;;;;4874391;28;93008;-71
2022/09/22 15:04:41;;;;;;;2.67;0.90;;;18.00;64.30;;;;;;4871851;28;91925;-71
2022/09/22 15:07:20;;;;;;;3.05;0.80;;;17.90;64.60;;;;;;4871913;28;92687;-71
2022/09/22 15:09:53;;;;;;;9.50;0.80;;;17.90;64.20;;;;;;4868954;28;92498;-71
2022/09/22 15:12:43;;;;;;;7.95;1.05;;;17.90;63.20;;;;;;4867119;28;93523;-69
2022/09/22 15:15:28;;;;;;;5.03;1.00;;;17.80;63.70;;;;;;4875860;28;92009;-71
2022/09/22 15:18:18;;;;;;;3.15;1.35;;;17.80;64.90;;;;;;4877850;28;92226;-71
2022/09/22 15:20:57;;;;;;;2.50;0.80;;;17.80;64.80;;;;;;4869419;28;92953;-71
2022/09/22 15:23:34;;;;;;;4.50;0.73;;;17.90;63.60;;;;;;4871598;28;93006;-72
2022/09/22 15:26:03;;;;;;;2.20;0.90;;;17.80;64.40;;;;;;4868899;28;92782;-72
2022/09/22 15:28:32;;;;;;;4.75;1.23;;;17.70;64.20;;;;;;4867749;28;92375;-71
2022/09/22 15:30:58;;;;;;;6.32;0.80;;;17.70;63.70;;;;;;4871619;28;93182;-72
2022/09/22 15:33:23;;;;;;;3.30;0.80;;;17.60;63.40;;;;;;4871902;28;92579;-73
2022/09/22 15:35:55;;;;;;;3.25;0.80;;;17.60;64.10;;;;;;4872815;28;92112;-73
2022/09/22 15:38:25;;;;;;;4.05;0.80;;;17.70;63.40;;;;;;4870877;28;91548;-73
2022/09/22 15:40:52;;;;;;;5.32;1.10;;;17.80;63.40;;;;;;4875910;28;92268;-72
2022/09/22 15:43:20;;;;;;;1.75;0.68;;;17.60;63.10;;;;;;4873845;28;92464;-73
2022/09/22 15:45:54;;;;;;;2.40;0.85;;;17.50;63.00;;;;;;4870874;28;93026;-72
2022/09/22 15:48:33;;;;;;;3.55;1.00;;;17.50;63.40;;;;;;4868274;28;92047;-73
2022/09/22 15:51:03;;;;;;;2.05;0.80;;;17.40;64.60;;;;;;4869972;28;93221;-73
2022/09/22 15:53:29;;;;;;;1.42;0.60;;;17.30;64.70;;;;;;4869995;28;93118;-72
2022/09/22 15:55:57;;;;;;;5.53;0.82;;;17.30;64.50;;;;;;4871560;28;91979;-73
2022/09/22 15:58:23;;;;;;;2.45;0.90;;;17.30;64.20;;;;;;4870425;28;93321;-73
2022/09/22 16:00:51;;;;;;;3.10;0.50;;;17.40;64.00;;;;;;4868328;28;94050;-72
2022/09/22 16:03:22;;;;;;;1.52;0.20;;;17.40;62.80;;;;;;4868843;28;92830;-72
2022/09/22 16:06:00;;;;;;;3.25;0.80;;;17.40;62.20;;;;;;4875964;28;92344;-72
2022/09/22 16:08:50;;;;;;;2.85;0.70;;;17.40;61.90;;;;;;4875023;28;92336;-73
2022/09/22 16:11:24;;;;;;;2.97;0.50;;;17.40;62.30;;;;;;4860674;28;95566;-73
2022/09/22 16:13:50;;;;;;;2.58;0.75;;;17.30;62.20;;;;;;4874051;28;92980;-72
2022/09/22 16:16:18;;;;;;;2.72;0.40;;;17.30;62.20;;;;;;4873063;28;92298;-72
2022/09/22 16:18:44;;;;;;;2.00;0.38;;;17.30;62.80;;;;;;4876380;28;92491;-72
2022/09/22 16:21:28;;;;;;;2.85;0.60;;;17.30;63.80;;;;;;4869926;28;92284;-72
2022/09/22 16:23:55;;;;;;;3.10;0.65;;;17.30;64.50;;;;;;4873731;28;92458;-73
2022/09/22 16:26:23;;;;;;;2.17;0.60;;;17.30;64.30;;;;;;4873336;28;91901;-72